Stuyvesant — WNFX — position and weather

sailwx.info

Track history (hours):
 
Tides and Currents Weather Stations Pressure Air Temp Water Temp Dewpoint Dewpoint Depression Visibility Wind Speed Wind Dir Waves Ship Positions

Stuyvesant

Owner: THE DUTRA GROUP, SAN RAFAEL, CA. More information available from US FCC via Universal Licensing System and Coast Guard Vessel Documentation Center.

Last reported at 2015-Mar-03 02:28 UTC. Time now 2015-Mar-03 03:13 UTC.
Position N 40°39' W 074°03'.

Length 122 m; draft 10.2 m.

Type: Cargo ship. MMSI: 368098000.

Date/timePositionNaut miles runAvg speedWind from/ knotsBaromVisibWave heightAir tempDewpointWater temp
2015-Mar-03 02:28N 40°39' W 074°03'0 0.1
2015-Mar-03 01:28N 40°39' W 074°03'0 0.0
2015-Mar-03 00:28N 40°39' W 074°03'0 0.0
2015-Mar-02 23:28N 40°39' W 074°03'0 0.0
2015-Mar-02 22:28N 40°39' W 074°03'0 0.0
2015-Mar-02 21:22N 40°39' W 074°03'0 0.0
2015-Mar-02 20:22N 40°39' W 074°03'0 0.0
2015-Mar-02 19:28N 40°39' W 074°03'0 0.0
2015-Mar-02 18:22N 40°39' W 074°03'0 0.0
2015-Mar-02 17:28N 40°39' W 074°03'0 0.0
2015-Mar-02 16:22N 40°39' W 074°03'0 0.0
2015-Mar-02 15:31N 40°39' W 074°03'0 0.0
2015-Mar-02 14:28N 40°39' W 074°03'0 0.0
2015-Mar-02 13:28N 40°39' W 074°03'0 0.1
2015-Mar-02 12:28N 40°39' W 074°03'0 0.0
2015-Mar-02 11:34N 40°39' W 074°03'1 0.8
2015-Mar-02 10:33N 40°38' W 074°03'10 9.0
2015-Mar-02 09:29N 40°30' W 073°56'54 8.7
2015-Mar-02 03:15N 40°44' W 072°48'5 5.1
2015-Mar-02 02:16N 40°46' W 072°41'6 8.6
2015-Mar-02 01:33N 40°48' W 072°34'1 0.9
2015-Mar-02 00:33N 40°48' W 072°35'1010.1
2015-Mar-01 23:33N 40°44' W 072°48'0 0.1
2015-Mar-01 22:33N 40°44' W 072°48'0 0.0
2015-Mar-01 21:34N 40°44' W 072°48'1 0.8
2015-Mar-01 20:33N 40°44' W 072°47'1010.5
2015-Mar-01 19:33N 40°48' W 072°34'0 0.3
2015-Mar-01 18:33N 40°48' W 072°34'3 3.1
2015-Mar-01 17:33N 40°47' W 072°38'8 8.1
2015-Mar-01 16:33N 40°44' W 072°48'0 0.1
2015-Mar-01 15:33N 40°44' W 072°48'0 0.0
2015-Mar-01 14:33N 40°44' W 072°48'0 0.0
2015-Mar-01 13:33N 40°44' W 072°48'0 0.0
2015-Mar-01 12:33N 40°44' W 072°48'4 3.4
2015-Mar-01 11:14N 40°46' W 072°42'5 8.1
2015-Mar-01 10:33N 40°48' W 072°35'1 0.8
2015-Mar-01 09:33N 40°48' W 072°34'6 6.3
2015-Mar-01 08:33N 40°45' W 072°42'5 4.5
2015-Mar-01 07:33N 40°44' W 072°48'0 0.0
2015-Mar-01 06:33N 40°44' W 072°48'0 0.0
2015-Mar-01 05:33N 40°44' W 072°48'0 0.0
2015-Mar-01 04:34N 40°44' W 072°48'0 0.0
2015-Mar-01 03:33N 40°44' W 072°48'5 4.7
2015-Mar-01 02:31N 40°46' W 072°42'6 6.7
2015-Mar-01 01:34N 40°48' W 072°34'1 1.2
2015-Mar-01 00:33N 40°48' W 072°35'3 3.3
2015-Feb-28 23:33N 40°46' W 072°39'7 6.7
2015-Feb-28 22:33N 40°44' W 072°48'0 0.0
2015-Feb-28 21:33N 40°44' W 072°48'0 0.0
2015-Feb-28 20:33N 40°44' W 072°48'0 0.1
2015-Feb-28 19:33N 40°44' W 072°48'9 9.4
2015-Feb-28 18:33N 40°47' W 072°36'2 1.6
2015-Feb-28 17:34N 40°48' W 072°34'1 1.4
2015-Feb-28 16:33N 40°47' W 072°36'0 0.3
2015-Feb-28 15:33N 40°48' W 072°36'5 4.7
2015-Feb-28 14:33N 40°46' W 072°41'5 5.2
2015-Feb-28 13:33N 40°44' W 072°48'0 0.0
2015-Feb-28 12:33N 40°44' W 072°48'0 0.0
2015-Feb-28 11:33N 40°44' W 072°48'0 0.0
2015-Feb-28 10:33N 40°44' W 072°48'0 0.0
2015-Feb-28 09:33N 40°44' W 072°48'9 8.6
2015-Feb-28 08:33N 40°47' W 072°37'2 2.3
2015-Feb-28 07:33N 40°48' W 072°34'0 0.5
2015-Feb-28 06:33N 40°48' W 072°35'1010.2
2015-Feb-28 05:33N 40°44' W 072°47'1 1.0
2015-Feb-28 04:33N 40°44' W 072°48'0 0.0
2015-Feb-28 03:33N 40°44' W 072°48'0 0.0
2015-Feb-28 02:34N 40°44' W 072°48'8 8.3
2015-Feb-28 01:33N 40°47' W 072°37'2 1.7
2015-Feb-28 00:33N 40°47' W 072°35'1 0.6
2015-Feb-27 23:34N 40°47' W 072°35'10 9.5
2015-Feb-27 22:33N 40°44' W 072°48'0 0.2
2015-Feb-27 21:33N 40°44' W 072°48'0 0.0
2015-Feb-27 20:32N 40°44' W 072°48'2 1.5
2015-Feb-27 19:26N 40°43' W 072°46'6 6.9
2015-Feb-27 18:31N 40°46' W 072°39'4 4.2
2015-Feb-27 17:33N 40°47' W 072°34'0 0.3
2015-Feb-27 16:34N 40°47' W 072°33'3 3.5
2015-Feb-27 15:33N 40°47' W 072°38'8 7.8
2015-Feb-27 14:33N 40°44' W 072°48'0 0.1
2015-Feb-27 13:25N 40°44' W 072°48'0 0.0
2015-Feb-27 12:33N 40°44' W 072°48'0 0.0
2015-Feb-27 11:34N 40°44' W 072°48'0 0.0
2015-Feb-27 10:33N 40°44' W 072°48'1 0.8
2015-Feb-27 09:33N 40°44' W 072°47'10 9.7
2015-Feb-27 08:33N 40°48' W 072°35'1 0.6
2015-Feb-27 07:33N 40°48' W 072°35'5 4.5
2015-Feb-27 06:33N 40°46' W 072°40'6 6.2
2015-Feb-27 05:34N 40°44' W 072°48'0 0.0
2015-Feb-27 04:33N 40°44' W 072°48'0 0.0
2015-Feb-27 03:29N 40°44' W 072°48'0 0.0
2015-Feb-27 02:24N 40°44' W 072°48'6 5.4
2015-Feb-27 01:20N 40°46' W 072°41'5 6.5
2015-Feb-27 00:33N 40°48' W 072°34'1 1.1
2015-Feb-26 23:33N 40°48' W 072°36'8 8.2
2015-Feb-26 22:33N 40°44' W 072°46'2 1.5
2015-Feb-26 21:33N 40°44' W 072°48'0 0.0
2015-Feb-26 20:33N 40°44' W 072°48'0 0.0
2015-Feb-26 19:34N 40°44' W 072°48'0 0.0
2015-Feb-26 18:33N 40°44' W 072°48'5 4.4
2015-Feb-26 17:26N 40°45' W 072°41'6 6.5
2015-Feb-26 16:33N 40°48' W 072°35'1 0.8
2015-Feb-26 15:33N 40°48' W 072°36'6 6.1
2015-Feb-26 14:33N 40°45' W 072°43'4 3.8
2015-Feb-26 13:33N 40°44' W 072°48'0 0.0
2015-Feb-26 12:33N 40°44' W 072°48'0 0.0
2015-Feb-26 11:25N 40°44' W 072°48'0 0.0
2015-Feb-26 10:32N 40°44' W 072°48'7 6.6
2015-Feb-26 09:28N 40°46' W 072°39'3 3.6
2015-Feb-26 08:33N 40°48' W 072°35'1 0.8
2015-Feb-26 07:33N 40°48' W 072°34'1110.9
2015-Feb-26 06:31N 40°43' W 072°48'1 1.2
2015-Feb-26 05:33N 40°44' W 072°48'0 0.0
2015-Feb-26 04:33N 40°44' W 072°48'0 0.0
2015-Feb-26 03:34N 40°44' W 072°48'0 0.0
2015-Feb-26 02:33N 40°44' W 072°48'8 7.6
2015-Feb-26 01:33N 40°47' W 072°38'2 2.3
2015-Feb-26 00:33N 40°48' W 072°36'1 1.3
2015-Feb-25 23:33N 40°48' W 072°34'1 0.8
2015-Feb-25 22:33N 40°48' W 072°35'1010.4
2015-Feb-25 21:33N 40°44' W 072°48'0 0.1
2015-Feb-25 20:33N 40°44' W 072°48'0 0.0
2015-Feb-25 19:33N 40°44' W 072°48'0 0.0
2015-Feb-25 18:33N 40°44' W 072°48'6 5.5
2015-Feb-25 17:31N 40°46' W 072°40'4 4.5
2015-Feb-25 16:33N 40°48' W 072°35'0 0.2
2015-Feb-25 15:33N 40°48' W 072°36'1 0.8
2015-Feb-25 14:34N 40°48' W 072°35'7 7.3
2015-Feb-25 13:33N 40°45' W 072°44'3 3.3
2015-Feb-25 12:33N 40°44' W 072°48'0 0.0
2015-Feb-25 11:33N 40°44' W 072°48'0 0.0
2015-Feb-25 10:33N 40°44' W 072°48'0 0.0
2015-Feb-25 09:32N 40°44' W 072°48'7 6.3
2015-Feb-25 08:22N 40°46' W 072°38'3 3.7
2015-Feb-25 07:33N 40°48' W 072°35'1 0.6
2015-Feb-25 06:33N 40°48' W 072°34'9 8.6
2015-Feb-25 05:33N 40°44' W 072°45'2 2.5
2015-Feb-25 04:34N 40°44' W 072°48'0 0.0
2015-Feb-25 03:33N 40°44' W 072°48'0 0.0
2015-Feb-25 02:34N 40°44' W 072°48'0 0.0
2015-Feb-25 01:34N 40°44' W 072°48'9 8.7
2015-Feb-25 00:33N 40°47' W 072°37'2 1.9
2015-Feb-24 23:33N 40°48' W 072°35'3 2.8
2015-Feb-24 22:33N 40°47' W 072°38'8 7.7
2015-Feb-24 21:33N 40°44' W 072°48'0 0.0
2015-Feb-24 20:33N 40°44' W 072°48'0 0.0
2015-Feb-24 19:34N 40°44' W 072°48'0 0.0
2015-Feb-24 18:33N 40°44' W 072°48'8 7.1
2015-Feb-24 17:27N 40°47' W 072°38'3 2.8
2015-Feb-24 16:34N 40°48' W 072°35'1 0.7
2015-Feb-24 15:33N 40°48' W 072°34'1010.3
2015-Feb-24 14:33N 40°44' W 072°47'1 1.0
2015-Feb-24 13:34N 40°44' W 072°48'0 0.0
2015-Feb-24 04:33N 40°44' W 072°48'0 0.0
2015-Feb-24 03:33N 40°44' W 072°48'0 0.0
2015-Feb-24 02:31N 40°44' W 072°48'7 4.8
2015-Feb-24 01:04N 40°46' W 072°39'4 7.8
2015-Feb-24 00:34N 40°48' W 072°34'1 1.3
2015-Feb-23 23:33N 40°48' W 072°36'9 9.2
2015-Feb-23 22:33N 40°44' W 072°47'0 0.5
2015-Feb-23 21:33N 40°44' W 072°48'0 0.0
2015-Feb-23 20:33N 40°44' W 072°48'0 0.0
2015-Feb-23 19:33N 40°44' W 072°48'10 5.1
2015-Feb-23 17:33N 40°48' W 072°35'1 1.1
2015-Feb-23 16:34N 40°48' W 072°34'9 9.5
2015-Feb-23 15:34N 40°44' W 072°45'2 1.9
2015-Feb-23 14:33N 40°44' W 072°48'0 0.0
2015-Feb-23 13:33N 40°44' W 072°48'0 0.0
2015-Feb-23 12:33N 40°44' W 072°48'1 0.5
2015-Feb-23 11:33N 40°44' W 072°47'10 9.8
2015-Feb-23 10:33N 40°48' W 072°35'1 0.7
2015-Feb-23 09:33N 40°48' W 072°35'1 0.9
2015-Feb-23 08:34N 40°48' W 072°33'3 3.0
2015-Feb-23 07:34N 40°45' W 072°33'2 2.2
2015-Feb-23 06:34N 40°47' W 072°33'0 0.3
2015-Feb-23 05:34N 40°48' W 072°33'2 2.1
2015-Feb-23 04:33N 40°45' W 072°33'1 0.9
2015-Feb-23 03:34N 40°45' W 072°34'1 0.8
2015-Feb-23 02:33N 40°45' W 072°34'1 1.3
2015-Feb-23 01:33N 40°47' W 072°34'0 0.4
2015-Feb-23 00:33N 40°47' W 072°34'2 2.4
2015-Feb-22 23:34N 40°45' W 072°34'0 0.2
2015-Feb-22 22:33N 40°45' W 072°33'2 1.6
2015-Feb-22 21:33N 40°46' W 072°33'1 1.3
2015-Feb-22 20:33N 40°48' W 072°33'2 1.8
2015-Feb-22 19:33N 40°46' W 072°33'1 1.1
2015-Feb-22 18:33N 40°45' W 072°33'1 0.8
2015-Feb-22 17:33N 40°46' W 072°33'1 0.7
2015-Feb-22 16:33N 40°46' W 072°33'7 0.5
2015-Feb-22 02:20N 40°45' W 072°43'4 5.2
2015-Feb-22 01:33N 40°43' W 072°47'2 1.8
2015-Feb-22 00:29N 40°43' W 072°45'3 2.9
2015-Feb-21 23:31N 40°44' W 072°41'3 2.9
2015-Feb-21 22:33N 40°46' W 072°38'3 2.8
2015-Feb-21 21:29N 40°47' W 072°34'2 2.4
2015-Feb-21 20:33N 40°48' W 072°32'3 3.0
2015-Feb-21 19:33N 40°47' W 072°36'4 3.7
2015-Feb-21 18:33N 40°45' W 072°40'4 3.7
2015-Feb-21 17:33N 40°44' W 072°45'3 2.6
2015-Feb-21 16:32N 40°44' W 072°48'0 0.0
2015-Feb-21 15:33N 40°44' W 072°48'0 0.0
2015-Feb-21 14:33N 40°44' W 072°48'0 0.0
2015-Feb-21 13:33N 40°44' W 072°48'0 0.0
2015-Feb-21 12:29N 40°44' W 072°48'9 7.2
2015-Feb-21 11:12N 40°47' W 072°36'1 1.4
2015-Feb-21 10:33N 40°48' W 072°35'1 1.0
2015-Feb-21 09:33N 40°48' W 072°34'8 7.6
2015-Feb-21 08:33N 40°45' W 072°43'4 3.5
2015-Feb-21 07:33N 40°44' W 072°48'0 0.0
2015-Feb-21 06:33N 40°44' W 072°48'0 0.0
2015-Feb-21 05:33N 40°44' W 072°48'0 0.0
2015-Feb-21 04:33N 40°44' W 072°48'0 0.0
2015-Feb-21 03:33N 40°44' W 072°48'2 1.5
2015-Feb-21 02:32N 40°44' W 072°46'  
Track history (hours):
 
Tides and Currents Weather Stations Pressure Air Temp Water Temp Dewpoint Dewpoint Depression Visibility Wind Speed Wind Dir Waves Ship Positions

Stuyvesant

Owner: THE DUTRA GROUP, SAN RAFAEL, CA. More information available from US FCC via Universal Licensing System and Coast Guard Vessel Documentation Center.

Last reported at 2015-Mar-03 02:28 UTC. Time now 2015-Mar-03 03:13 UTC.
Position N 40°39' W 074°03'.

Length 122 m; draft 10.2 m.

Type: Cargo ship. MMSI: 368098000.

Date/timePositionNaut miles runAvg speedWind from/ knotsBaromVisibWave heightAir tempDewpointWater temp
2015-Mar-03 02:28N 40°39' W 074°03'0 0.1
2015-Mar-03 01:28N 40°39' W 074°03'0 0.0
2015-Mar-03 00:28N 40°39' W 074°03'0 0.0
2015-Mar-02 23:28N 40°39' W 074°03'0 0.0
2015-Mar-02 22:28N 40°39' W 074°03'0 0.0
2015-Mar-02 21:22N 40°39' W 074°03'0 0.0
2015-Mar-02 20:22N 40°39' W 074°03'0 0.0
2015-Mar-02 19:28N 40°39' W 074°03'0 0.0
2015-Mar-02 18:22N 40°39' W 074°03'0 0.0
2015-Mar-02 17:28N 40°39' W 074°03'0 0.0
2015-Mar-02 16:22N 40°39' W 074°03'0 0.0
2015-Mar-02 15:31N 40°39' W 074°03'0 0.0
2015-Mar-02 14:28N 40°39' W 074°03'0 0.0
2015-Mar-02 13:28N 40°39' W 074°03'0 0.1
2015-Mar-02 12:28N 40°39' W 074°03'0 0.0
2015-Mar-02 11:34N 40°39' W 074°03'1 0.8
2015-Mar-02 10:33N 40°38' W 074°03'10 9.0
2015-Mar-02 09:29N 40°30' W 073°56'54 8.7
2015-Mar-02 03:15N 40°44' W 072°48'5 5.1
2015-Mar-02 02:16N 40°46' W 072°41'6 8.6
2015-Mar-02 01:33N 40°48' W 072°34'1 0.9
2015-Mar-02 00:33N 40°48' W 072°35'1010.1
2015-Mar-01 23:33N 40°44' W 072°48'0 0.1
2015-Mar-01 22:33N 40°44' W 072°48'0 0.0
2015-Mar-01 21:34N 40°44' W 072°48'1 0.8
2015-Mar-01 20:33N 40°44' W 072°47'1010.5
2015-Mar-01 19:33N 40°48' W 072°34'0 0.3
2015-Mar-01 18:33N 40°48' W 072°34'3 3.1
2015-Mar-01 17:33N 40°47' W 072°38'8 8.1
2015-Mar-01 16:33N 40°44' W 072°48'0 0.1
2015-Mar-01 15:33N 40°44' W 072°48'0 0.0
2015-Mar-01 14:33N 40°44' W 072°48'0 0.0
2015-Mar-01 13:33N 40°44' W 072°48'0 0.0
2015-Mar-01 12:33N 40°44' W 072°48'4 3.4
2015-Mar-01 11:14N 40°46' W 072°42'5 8.1
2015-Mar-01 10:33N 40°48' W 072°35'1 0.8
2015-Mar-01 09:33N 40°48' W 072°34'6 6.3
2015-Mar-01 08:33N 40°45' W 072°42'5 4.5
2015-Mar-01 07:33N 40°44' W 072°48'0 0.0
2015-Mar-01 06:33N 40°44' W 072°48'0 0.0
2015-Mar-01 05:33N 40°44' W 072°48'0 0.0
2015-Mar-01 04:34N 40°44' W 072°48'0 0.0
2015-Mar-01 03:33N 40°44' W 072°48'5 4.7
2015-Mar-01 02:31N 40°46' W 072°42'6 6.7
2015-Mar-01 01:34N 40°48' W 072°34'1 1.2
2015-Mar-01 00:33N 40°48' W 072°35'3 3.3
2015-Feb-28 23:33N 40°46' W 072°39'7 6.7
2015-Feb-28 22:33N 40°44' W 072°48'0 0.0
2015-Feb-28 21:33N 40°44' W 072°48'0 0.0
2015-Feb-28 20:33N 40°44' W 072°48'0 0.1
2015-Feb-28 19:33N 40°44' W 072°48'9 9.4
2015-Feb-28 18:33N 40°47' W 072°36'2 1.6
2015-Feb-28 17:34N 40°48' W 072°34'1 1.4
2015-Feb-28 16:33N 40°47' W 072°36'0 0.3
2015-Feb-28 15:33N 40°48' W 072°36'5 4.7
2015-Feb-28 14:33N 40°46' W 072°41'5 5.2
2015-Feb-28 13:33N 40°44' W 072°48'0 0.0
2015-Feb-28 12:33N 40°44' W 072°48'0 0.0
2015-Feb-28 11:33N 40°44' W 072°48'0 0.0
2015-Feb-28 10:33N 40°44' W 072°48'0 0.0
2015-Feb-28 09:33N 40°44' W 072°48'9 8.6
2015-Feb-28 08:33N 40°47' W 072°37'2 2.3
2015-Feb-28 07:33N 40°48' W 072°34'0 0.5
2015-Feb-28 06:33N 40°48' W 072°35'1010.2
2015-Feb-28 05:33N 40°44' W 072°47'1 1.0
2015-Feb-28 04:33N 40°44' W 072°48'0 0.0
2015-Feb-28 03:33N 40°44' W 072°48'0 0.0
2015-Feb-28 02:34N 40°44' W 072°48'8 8.3
2015-Feb-28 01:33N 40°47' W 072°37'2 1.7
2015-Feb-28 00:33N 40°47' W 072°35'1 0.6
2015-Feb-27 23:34N 40°47' W 072°35'10 9.5
2015-Feb-27 22:33N 40°44' W 072°48'0 0.2
2015-Feb-27 21:33N 40°44' W 072°48'0 0.0
2015-Feb-27 20:32N 40°44' W 072°48'2 1.5
2015-Feb-27 19:26N 40°43' W 072°46'6 6.9
2015-Feb-27 18:31N 40°46' W 072°39'4 4.2
2015-Feb-27 17:33N 40°47' W 072°34'0 0.3
2015-Feb-27 16:34N 40°47' W 072°33'3 3.5
2015-Feb-27 15:33N 40°47' W 072°38'8 7.8
2015-Feb-27 14:33N 40°44' W 072°48'0 0.1
2015-Feb-27 13:25N 40°44' W 072°48'0 0.0
2015-Feb-27 12:33N 40°44' W 072°48'0 0.0
2015-Feb-27 11:34N 40°44' W 072°48'0 0.0
2015-Feb-27 10:33N 40°44' W 072°48'1 0.8
2015-Feb-27 09:33N 40°44' W 072°47'10 9.7
2015-Feb-27 08:33N 40°48' W 072°35'1 0.6
2015-Feb-27 07:33N 40°48' W 072°35'5 4.5
2015-Feb-27 06:33N 40°46' W 072°40'6 6.2
2015-Feb-27 05:34N 40°44' W 072°48'0 0.0
2015-Feb-27 04:33N 40°44' W 072°48'0 0.0
2015-Feb-27 03:29N 40°44' W 072°48'0 0.0
2015-Feb-27 02:24N 40°44' W 072°48'6 5.4
2015-Feb-27 01:20N 40°46' W 072°41'5 6.5
2015-Feb-27 00:33N 40°48' W 072°34'1 1.1
2015-Feb-26 23:33N 40°48' W 072°36'8 8.2
2015-Feb-26 22:33N 40°44' W 072°46'2 1.5
2015-Feb-26 21:33N 40°44' W 072°48'0 0.0
2015-Feb-26 20:33N 40°44' W 072°48'0 0.0
2015-Feb-26 19:34N 40°44' W 072°48'0 0.0
2015-Feb-26 18:33N 40°44' W 072°48'5 4.4
2015-Feb-26 17:26N 40°45' W 072°41'6 6.5
2015-Feb-26 16:33N 40°48' W 072°35'1 0.8
2015-Feb-26 15:33N 40°48' W 072°36'6 6.1
2015-Feb-26 14:33N 40°45' W 072°43'4 3.8
2015-Feb-26 13:33N 40°44' W 072°48'0 0.0
2015-Feb-26 12:33N 40°44' W 072°48'0 0.0
2015-Feb-26 11:25N 40°44' W 072°48'0 0.0
2015-Feb-26 10:32N 40°44' W 072°48'7 6.6
2015-Feb-26 09:28N 40°46' W 072°39'3 3.6
2015-Feb-26 08:33N 40°48' W 072°35'1 0.8
2015-Feb-26 07:33N 40°48' W 072°34'1110.9
2015-Feb-26 06:31N 40°43' W 072°48'1 1.2
2015-Feb-26 05:33N 40°44' W 072°48'0 0.0
2015-Feb-26 04:33N 40°44' W 072°48'0 0.0
2015-Feb-26 03:34N 40°44' W 072°48'0 0.0
2015-Feb-26 02:33N 40°44' W 072°48'8 7.6
2015-Feb-26 01:33N 40°47' W 072°38'2 2.3
2015-Feb-26 00:33N 40°48' W 072°36'1 1.3
2015-Feb-25 23:33N 40°48' W 072°34'1 0.8
2015-Feb-25 22:33N 40°48' W 072°35'1010.4
2015-Feb-25 21:33N 40°44' W 072°48'0 0.1
2015-Feb-25 20:33N 40°44' W 072°48'0 0.0
2015-Feb-25 19:33N 40°44' W 072°48'0 0.0
2015-Feb-25 18:33N 40°44' W 072°48'6 5.5
2015-Feb-25 17:31N 40°46' W 072°40'4 4.5
2015-Feb-25 16:33N 40°48' W 072°35'0 0.2
2015-Feb-25 15:33N 40°48' W 072°36'1 0.8
2015-Feb-25 14:34N 40°48' W 072°35'7 7.3
2015-Feb-25 13:33N 40°45' W 072°44'3 3.3
2015-Feb-25 12:33N 40°44' W 072°48'0 0.0
2015-Feb-25 11:33N 40°44' W 072°48'0 0.0
2015-Feb-25 10:33N 40°44' W 072°48'0 0.0
2015-Feb-25 09:32N 40°44' W 072°48'7 6.3
2015-Feb-25 08:22N 40°46' W 072°38'3 3.7
2015-Feb-25 07:33N 40°48' W 072°35'1 0.6
2015-Feb-25 06:33N 40°48' W 072°34'9 8.6
2015-Feb-25 05:33N 40°44' W 072°45'2 2.5
2015-Feb-25 04:34N 40°44' W 072°48'0 0.0
2015-Feb-25 03:33N 40°44' W 072°48'0 0.0
2015-Feb-25 02:34N 40°44' W 072°48'0 0.0
2015-Feb-25 01:34N 40°44' W 072°48'9 8.7
2015-Feb-25 00:33N 40°47' W 072°37'2 1.9
2015-Feb-24 23:33N 40°48' W 072°35'3 2.8
2015-Feb-24 22:33N 40°47' W 072°38'8 7.7
2015-Feb-24 21:33N 40°44' W 072°48'0 0.0
2015-Feb-24 20:33N 40°44' W 072°48'0 0.0
2015-Feb-24 19:34N 40°44' W 072°48'0 0.0
2015-Feb-24 18:33N 40°44' W 072°48'8 7.1
2015-Feb-24 17:27N 40°47' W 072°38'3 2.8
2015-Feb-24 16:34N 40°48' W 072°35'1 0.7
2015-Feb-24 15:33N 40°48' W 072°34'1010.3
2015-Feb-24 14:33N 40°44' W 072°47'1 1.0
2015-Feb-24 13:34N 40°44' W 072°48'0 0.0
2015-Feb-24 04:33N 40°44' W 072°48'0 0.0
2015-Feb-24 03:33N 40°44' W 072°48'0 0.0
2015-Feb-24 02:31N 40°44' W 072°48'7 4.8
2015-Feb-24 01:04N 40°46' W 072°39'4 7.8
2015-Feb-24 00:34N 40°48' W 072°34'1 1.3
2015-Feb-23 23:33N 40°48' W 072°36'9 9.2
2015-Feb-23 22:33N 40°44' W 072°47'0 0.5
2015-Feb-23 21:33N 40°44' W 072°48'0 0.0
2015-Feb-23 20:33N 40°44' W 072°48'0 0.0
2015-Feb-23 19:33N 40°44' W 072°48'10 5.1
2015-Feb-23 17:33N 40°48' W 072°35'1 1.1
2015-Feb-23 16:34N 40°48' W 072°34'9 9.5
2015-Feb-23 15:34N 40°44' W 072°45'2 1.9
2015-Feb-23 14:33N 40°44' W 072°48'0 0.0
2015-Feb-23 13:33N 40°44' W 072°48'0 0.0
2015-Feb-23 12:33N 40°44' W 072°48'1 0.5
2015-Feb-23 11:33N 40°44' W 072°47'10 9.8
2015-Feb-23 10:33N 40°48' W 072°35'1 0.7
2015-Feb-23 09:33N 40°48' W 072°35'1 0.9
2015-Feb-23 08:34N 40°48' W 072°33'3 3.0
2015-Feb-23 07:34N 40°45' W 072°33'2 2.2
2015-Feb-23 06:34N 40°47' W 072°33'0 0.3
2015-Feb-23 05:34N 40°48' W 072°33'2 2.1
2015-Feb-23 04:33N 40°45' W 072°33'1 0.9
2015-Feb-23 03:34N 40°45' W 072°34'1 0.8
2015-Feb-23 02:33N 40°45' W 072°34'1 1.3
2015-Feb-23 01:33N 40°47' W 072°34'0 0.4
2015-Feb-23 00:33N 40°47' W 072°34'2 2.4
2015-Feb-22 23:34N 40°45' W 072°34'0 0.2
2015-Feb-22 22:33N 40°45' W 072°33'2 1.6
2015-Feb-22 21:33N 40°46' W 072°33'1 1.3
2015-Feb-22 20:33N 40°48' W 072°33'2 1.8
2015-Feb-22 19:33N 40°46' W 072°33'1 1.1
2015-Feb-22 18:33N 40°45' W 072°33'1 0.8
2015-Feb-22 17:33N 40°46' W 072°33'1 0.7
2015-Feb-22 16:33N 40°46' W 072°33'7 0.5
2015-Feb-22 02:20N 40°45' W 072°43'4 5.2
2015-Feb-22 01:33N 40°43' W 072°47'2 1.8
2015-Feb-22 00:29N 40°43' W 072°45'3 2.9
2015-Feb-21 23:31N 40°44' W 072°41'3 2.9
2015-Feb-21 22:33N 40°46' W 072°38'3 2.8
2015-Feb-21 21:29N 40°47' W 072°34'2 2.4
2015-Feb-21 20:33N 40°48' W 072°32'3 3.0
2015-Feb-21 19:33N 40°47' W 072°36'4 3.7
2015-Feb-21 18:33N 40°45' W 072°40'4 3.7
2015-Feb-21 17:33N 40°44' W 072°45'3 2.6
2015-Feb-21 16:32N 40°44' W 072°48'0 0.0
2015-Feb-21 15:33N 40°44' W 072°48'0 0.0
2015-Feb-21 14:33N 40°44' W 072°48'0 0.0
2015-Feb-21 13:33N 40°44' W 072°48'0 0.0
2015-Feb-21 12:29N 40°44' W 072°48'9 7.2
2015-Feb-21 11:12N 40°47' W 072°36'1 1.4
2015-Feb-21 10:33N 40°48' W 072°35'1 1.0
2015-Feb-21 09:33N 40°48' W 072°34'8 7.6
2015-Feb-21 08:33N 40°45' W 072°43'4 3.5
2015-Feb-21 07:33N 40°44' W 072°48'0 0.0
2015-Feb-21 06:33N 40°44' W 072°48'0 0.0
2015-Feb-21 05:33N 40°44' W 072°48'0 0.0
2015-Feb-21 04:33N 40°44' W 072°48'0 0.0
2015-Feb-21 03:33N 40°44' W 072°48'2 1.5
2015-Feb-21 02:32N 40°44' W 072°46'  

Dump ship's entire track history